createdAt,value
2018-05-29T00:01:13.892Z,21.70
2018-05-29T00:03:40.423Z,21.70
2018-05-29T00:06:06.661Z,21.70
2018-05-29T00:08:32.864Z,21.60
2018-05-29T00:10:59.032Z,21.60
2018-05-29T00:13:25.372Z,21.50
2018-05-29T00:15:51.524Z,21.60
2018-05-29T00:18:17.914Z,21.60
2018-05-29T00:20:44.211Z,21.60
2018-05-29T00:23:11.132Z,21.50
2018-05-29T00:25:37.298Z,21.50
2018-05-29T00:28:03.464Z,21.50
2018-05-29T00:30:29.658Z,21.50
2018-05-29T00:32:55.808Z,21.40
2018-05-29T00:35:22.352Z,21.40
2018-05-29T00:37:48.532Z,21.30
2018-05-29T00:40:15.436Z,21.20
2018-05-29T00:42:41.608Z,21.20
2018-05-29T00:45:07.763Z,21.20
2018-05-29T00:47:33.980Z,21.00
2018-05-29T00:50:00.229Z,21.00
2018-05-29T00:52:26.773Z,21.00
2018-05-29T00:55:05.253Z,21.00
2018-05-29T00:57:31.586Z,21.00
2018-05-29T00:59:57.744Z,21.00
2018-05-29T01:02:23.908Z,21.00
2018-05-29T01:04:50.206Z,21.00
2018-05-29T01:07:16.395Z,21.00
2018-05-29T01:09:42.577Z,21.00
2018-05-29T01:12:08.766Z,20.90
2018-05-29T01:14:34.976Z,20.90
2018-05-29T01:17:01.145Z,20.90
2018-05-29T01:19:27.343Z,21.00
2018-05-29T01:21:53.815Z,20.90
2018-05-29T01:24:20.003Z,20.90
2018-05-29T01:26:46.160Z,20.90
2018-05-29T01:29:12.436Z,20.90
2018-05-29T01:31:39.340Z,20.90
2018-05-29T01:34:05.505Z,20.90
2018-05-29T01:36:32.424Z,20.80
2018-05-29T01:38:58.578Z,20.80
2018-05-29T01:41:25.572Z,20.80
2018-05-29T01:43:51.890Z,20.80
2018-05-29T01:46:18.064Z,20.80
2018-05-29T01:48:44.232Z,20.80
2018-05-29T01:51:10.729Z,20.70
2018-05-29T01:53:36.901Z,20.60
2018-05-29T01:56:03.238Z,20.60
2018-05-29T01:58:29.434Z,20.50
2018-05-29T02:00:56.749Z,20.40
2018-05-29T02:03:22.931Z,20.40
2018-05-29T02:05:49.123Z,20.40
2018-05-29T02:08:15.309Z,20.20
2018-05-29T02:10:41.422Z,20.30
2018-05-29T02:13:07.526Z,20.30
2018-05-29T02:15:33.611Z,20.30
2018-05-29T02:17:59.698Z,20.30
2018-05-29T02:20:25.781Z,20.30
2018-05-29T02:22:51.930Z,20.30
2018-05-29T02:25:18.022Z,20.30
2018-05-29T02:27:44.962Z,20.20
2018-05-29T02:30:11.053Z,20.10
2018-05-29T02:32:37.161Z,20.10
2018-05-29T02:35:03.267Z,20.10
2018-05-29T02:37:29.370Z,20.10
2018-05-29T02:39:56.202Z,20.00
2018-05-29T02:42:22.291Z,20.00
2018-05-29T02:44:48.407Z,20.10
2018-05-29T02:47:14.492Z,20.00
2018-05-29T02:49:41.431Z,20.00
2018-05-29T02:52:08.270Z,19.90
2018-05-29T02:54:34.354Z,19.90
2018-05-29T02:57:00.438Z,19.70
2018-05-29T02:59:27.269Z,19.70
2018-05-29T03:01:54.094Z,19.70
2018-05-29T03:04:20.285Z,19.70
2018-05-29T03:06:46.378Z,19.70
2018-05-29T03:09:13.201Z,19.70
2018-05-29T03:11:39.294Z,19.70
2018-05-29T03:14:05.443Z,19.70
2018-05-29T03:16:31.542Z,19.60
2018-05-29T03:18:57.631Z,19.70
2018-05-29T03:21:23.840Z,19.70
2018-05-29T03:23:50.672Z,19.60
2018-05-29T03:26:16.767Z,19.60
2018-05-29T03:28:45.382Z,19.60
2018-05-29T03:31:11.477Z,19.60
2018-05-29T03:33:37.623Z,19.70
2018-05-29T03:36:03.720Z,19.70
2018-05-29T03:38:29.794Z,19.60
2018-05-29T03:40:55.911Z,19.60
2018-05-29T03:43:21.993Z,19.60
2018-05-29T03:45:48.632Z,19.60
2018-05-29T03:48:14.709Z,19.70
2018-05-29T03:50:41.538Z,19.70
2018-05-29T03:53:07.633Z,19.70
2018-05-29T03:55:33.722Z,19.70
2018-05-29T03:58:01.003Z,19.70
2018-05-29T04:00:27.086Z,19.70
2018-05-29T04:02:53.165Z,19.70
2018-05-29T04:05:19.263Z,19.70
2018-05-29T04:07:45.402Z,19.80
2018-05-29T04:10:11.581Z,19.80
2018-05-29T04:12:37.769Z,19.80
2018-05-29T04:15:03.857Z,19.80
2018-05-29T04:17:30.685Z,19.90
2018-05-29T04:19:56.766Z,19.90
2018-05-29T04:22:22.876Z,19.90
2018-05-29T04:24:48.954Z,20.00
2018-05-29T04:27:15.040Z,20.00
2018-05-29T04:29:41.119Z,20.10
2018-05-29T04:32:07.953Z,20.10
2018-05-29T04:34:34.053Z,20.10
2018-05-29T04:37:00.151Z,20.10
2018-05-29T04:39:26.244Z,20.10
2018-05-29T04:41:53.095Z,20.00
2018-05-29T04:44:19.177Z,20.00
2018-05-29T04:46:45.275Z,20.10
2018-05-29T04:49:11.371Z,20.20
2018-05-29T04:51:38.535Z,20.30
2018-05-29T04:54:04.642Z,20.20
2018-05-29T04:56:31.544Z,20.20
2018-05-29T04:58:57.945Z,20.20
2018-05-29T05:01:24.025Z,20.20
2018-05-29T05:03:50.118Z,20.20
2018-05-29T05:06:16.210Z,20.20
2018-05-29T05:08:42.311Z,20.20
2018-05-29T05:11:09.146Z,20.30
2018-05-29T05:13:35.729Z,20.30
2018-05-29T05:16:01.821Z,20.40
2018-05-29T05:18:28.877Z,20.60
2018-05-29T05:20:55.714Z,20.70
2018-05-29T05:23:22.538Z,20.90
2018-05-29T05:25:49.002Z,20.80
2018-05-29T05:28:15.827Z,21.10
2018-05-29T05:30:42.670Z,21.20
2018-05-29T05:33:09.516Z,21.30
2018-05-29T05:35:36.347Z,21.40
2018-05-29T05:38:02.438Z,21.40
2018-05-29T05:40:28.531Z,21.50
2018-05-29T05:42:54.619Z,21.80
2018-05-29T05:45:20.714Z,22.10
2018-05-29T05:47:46.801Z,22.20
2018-05-29T05:50:13.635Z,22.70
2018-05-29T05:52:40.518Z,22.90
2018-05-29T05:55:07.296Z,23.10
2018-05-29T05:57:33.407Z,23.00
2018-05-29T05:59:59.481Z,23.20
2018-05-29T06:02:25.561Z,23.50
2018-05-29T06:04:51.777Z,23.40
2018-05-29T06:07:17.877Z,23.60
2018-05-29T06:09:43.978Z,23.80
2018-05-29T06:12:10.808Z,24.10
2018-05-29T06:14:36.905Z,24.10
2018-05-29T06:17:03.001Z,23.90
2018-05-29T06:19:29.084Z,23.90
2018-05-29T06:21:55.565Z,24.10
2018-05-29T06:24:21.702Z,24.40
2018-05-29T06:26:47.771Z,24.40
2018-05-29T06:29:13.862Z,24.40
2018-05-29T06:31:39.961Z,24.50
2018-05-29T06:34:06.042Z,24.60
2018-05-29T06:36:32.137Z,24.70
2018-05-29T06:38:58.246Z,24.90
2018-05-29T06:41:24.359Z,25.10
2018-05-29T06:43:50.502Z,25.10
2018-05-29T06:46:16.606Z,25.10
2018-05-29T06:48:42.805Z,24.90
2018-05-29T06:51:08.891Z,24.90
2018-05-29T06:53:34.969Z,25.20
2018-05-29T06:56:01.805Z,25.40
2018-05-29T06:58:28.654Z,25.40
2018-05-29T07:00:55.477Z,25.50
2018-05-29T07:03:21.557Z,25.50
2018-05-29T07:05:47.997Z,25.40
2018-05-29T07:08:14.085Z,25.50
2018-05-29T07:10:40.913Z,25.70
2018-05-29T07:13:07.006Z,25.70
2018-05-29T07:15:33.085Z,25.90
2018-05-29T07:17:59.951Z,26.40
2018-05-29T07:20:26.041Z,26.30
2018-05-29T07:22:52.991Z,26.30
2018-05-29T07:25:19.901Z,26.20
2018-05-29T07:27:45.986Z,26.20
2018-05-29T07:30:12.074Z,26.40
2018-05-29T07:32:38.169Z,26.60
2018-05-29T07:35:04.269Z,26.40
2018-05-29T07:37:30.345Z,26.60
2018-05-29T07:39:56.437Z,26.80
2018-05-29T07:42:22.530Z,26.90
2018-05-29T07:44:49.005Z,27.20
2018-05-29T07:47:15.081Z,27.10
2018-05-29T07:49:41.903Z,27.50
2018-05-29T07:52:07.990Z,27.40
2018-05-29T07:54:34.081Z,27.70
2018-05-29T07:57:00.930Z,27.30
2018-05-29T07:59:27.021Z,27.20
2018-05-29T08:01:53.123Z,27.40
2018-05-29T08:04:19.225Z,27.60
2018-05-29T08:06:45.325Z,27.90
2018-05-29T08:09:12.170Z,27.70
2018-05-29T08:11:38.985Z,27.80
2018-05-29T08:14:05.103Z,27.70
2018-05-29T08:16:31.205Z,28.00
2018-05-29T08:18:57.293Z,28.00
2018-05-29T08:21:23.389Z,28.00
2018-05-29T08:23:49.477Z,28.30
2018-05-29T08:26:15.576Z,28.50
2018-05-29T08:28:41.673Z,28.70
2018-05-29T08:31:08.584Z,28.80
2018-05-29T08:33:35.361Z,29.00
2018-05-29T08:36:02.329Z,29.10
2018-05-29T08:38:28.427Z,29.00
2018-05-29T08:40:54.507Z,28.80
2018-05-29T08:43:20.926Z,28.80
2018-05-29T08:45:47.015Z,28.50
2018-05-29T08:48:13.111Z,28.60
2018-05-29T08:50:39.195Z,28.60
2018-05-29T08:53:05.282Z,28.70
2018-05-29T08:55:31.389Z,29.10
2018-05-29T08:57:57.490Z,29.00
2018-05-29T09:00:23.615Z,29.40
2018-05-29T09:02:49.730Z,29.40
2018-05-29T09:05:23.129Z,29.40
2018-05-29T09:07:49.254Z,29.70
2018-05-29T09:10:15.341Z,29.60
2018-05-29T09:12:41.437Z,29.60
2018-05-29T09:15:07.550Z,29.60
2018-05-29T09:17:34.078Z,29.80
2018-05-29T09:20:00.200Z,29.80
2018-05-29T09:22:27.005Z,29.90
2018-05-29T09:24:53.965Z,29.80
2018-05-29T09:27:20.795Z,29.90
2018-05-29T09:29:47.775Z,29.90
2018-05-29T09:32:14.577Z,30.00
2018-05-29T09:34:41.433Z,30.30
2018-05-29T09:37:08.278Z,30.40
2018-05-29T09:39:35.128Z,30.50
2018-05-29T09:42:01.216Z,30.40
2018-05-29T09:44:27.414Z,30.70
2018-05-29T09:46:53.505Z,30.90
2018-05-29T09:49:20.326Z,30.70
2018-05-29T09:51:46.427Z,30.70
2018-05-29T09:54:12.505Z,30.50
2018-05-29T09:56:38.621Z,30.70
2018-05-29T09:59:05.466Z,30.70
2018-05-29T10:01:32.312Z,30.90
2018-05-29T10:03:59.142Z,31.00
2018-05-29T10:06:25.961Z,30.90
2018-05-29T10:08:52.082Z,30.90
2018-05-29T10:11:18.253Z,31.00
2018-05-29T10:13:44.290Z,31.20
2018-05-29T10:16:10.379Z,31.40
2018-05-29T10:18:36.454Z,31.50
2018-05-29T10:21:02.615Z,31.80
2018-05-29T10:23:28.731Z,31.50
2018-05-29T10:25:54.790Z,31.40
2018-05-29T10:28:21.616Z,31.40
2018-05-29T10:30:47.701Z,31.30
2018-05-29T10:33:13.789Z,31.10
2018-05-29T10:35:40.629Z,31.60
2018-05-29T10:38:07.461Z,31.90
2018-05-29T10:40:33.932Z,31.90
2018-05-29T10:43:00.016Z,32.00
2018-05-29T10:45:26.108Z,32.20
2018-05-29T10:47:52.657Z,32.10
2018-05-29T10:50:18.781Z,31.90
2018-05-29T10:52:44.885Z,32.00
2018-05-29T10:55:10.970Z,31.80
2018-05-29T10:57:37.801Z,32.00
2018-05-29T11:00:03.928Z,32.00
2018-05-29T11:02:30.772Z,32.30
2018-05-29T11:04:56.877Z,32.30
2018-05-29T11:07:22.966Z,32.30
2018-05-29T11:09:49.270Z,32.40
2018-05-29T11:12:16.153Z,32.70
2018-05-29T11:14:42.237Z,32.70
2018-05-29T11:17:09.070Z,32.60
2018-05-29T11:19:35.160Z,32.60
2018-05-29T11:22:01.281Z,32.60
2018-05-29T11:24:27.413Z,32.80
2018-05-29T11:26:53.493Z,32.90
2018-05-29T11:29:20.328Z,32.90
2018-05-29T11:31:47.157Z,32.90
2018-05-29T11:34:13.250Z,32.90
2018-05-29T11:36:39.342Z,32.80
2018-05-29T11:39:05.457Z,32.70
2018-05-29T11:41:31.554Z,32.60
2018-05-29T11:43:57.645Z,32.60
2018-05-29T11:46:23.742Z,32.40
2018-05-29T11:48:49.841Z,32.30
2018-05-29T11:51:15.933Z,32.40
2018-05-29T11:53:42.041Z,32.60
2018-05-29T11:56:08.565Z,32.60
2018-05-29T11:58:34.642Z,32.80
2018-05-29T12:01:00.731Z,32.90
2018-05-29T12:03:26.835Z,32.70
2018-05-29T12:05:52.951Z,32.70
2018-05-29T12:08:19.810Z,32.90
2018-05-29T12:10:45.897Z,32.80
2018-05-29T12:13:11.994Z,32.70
2018-05-29T12:15:38.083Z,32.70
2018-05-29T12:18:04.301Z,32.60
2018-05-29T12:20:30.383Z,32.70
2018-05-29T12:22:56.493Z,32.70
2018-05-29T12:25:22.618Z,32.70
2018-05-29T12:27:48.722Z,32.80
2018-05-29T12:30:14.820Z,33.00
2018-05-29T12:32:41.694Z,32.30
2018-05-29T12:35:07.794Z,32.30
2018-05-29T12:37:34.645Z,32.00
2018-05-29T12:40:00.730Z,32.00
2018-05-29T12:42:26.825Z,32.00
2018-05-29T12:44:52.949Z,32.10
2018-05-29T12:47:19.049Z,32.40
2018-05-29T12:49:45.226Z,32.40
2018-05-29T12:52:11.374Z,32.60
2018-05-29T12:54:37.454Z,32.80
2018-05-29T12:57:03.581Z,32.60
2018-05-29T12:59:29.673Z,32.40
2018-05-29T13:01:56.547Z,32.50
2018-05-29T13:04:22.663Z,32.50
2018-05-29T13:06:48.755Z,32.60
2018-05-29T13:09:15.581Z,32.90
2018-05-29T13:11:41.689Z,32.90
2018-05-29T13:14:07.905Z,33.00
2018-05-29T13:16:33.996Z,32.90
2018-05-29T13:19:00.088Z,32.60
2018-05-29T13:21:27.011Z,32.40
2018-05-29T13:23:53.517Z,32.60
2018-05-29T13:26:19.590Z,32.60
2018-05-29T13:28:45.678Z,32.30
2018-05-29T13:31:11.794Z,32.30
2018-05-29T13:33:37.874Z,32.40
2018-05-29T13:36:03.973Z,32.50
2018-05-29T13:38:30.064Z,32.60
2018-05-29T13:40:56.161Z,32.70
2018-05-29T13:43:22.997Z,32.90
2018-05-29T13:45:49.085Z,32.80
2018-05-29T13:48:15.174Z,32.80
2018-05-29T13:50:42.003Z,32.40
2018-05-29T13:53:08.826Z,32.40
2018-05-29T13:55:34.965Z,32.30
2018-05-29T13:58:01.054Z,32.40
2018-05-29T14:00:27.570Z,32.60
2018-05-29T14:02:53.753Z,32.60
2018-05-29T14:05:19.851Z,32.40
2018-05-29T14:07:46.464Z,32.30
2018-05-29T14:10:12.549Z,32.10
2018-05-29T14:12:39.374Z,32.00
2018-05-29T14:15:05.481Z,32.00
2018-05-29T14:17:31.701Z,32.20
2018-05-29T14:19:57.782Z,32.40
2018-05-29T14:22:24.615Z,32.50
2018-05-29T14:24:51.481Z,32.40
2018-05-29T14:27:17.573Z,32.40
2018-05-29T14:29:43.674Z,32.20
2018-05-29T14:32:09.757Z,32.20
2018-05-29T14:34:35.967Z,32.00
2018-05-29T14:37:02.805Z,31.80
2018-05-29T14:39:29.637Z,31.80
2018-05-29T14:41:55.721Z,31.70
2018-05-29T14:44:21.801Z,31.80
2018-05-29T14:46:48.642Z,31.90
2018-05-29T14:49:15.457Z,32.00
2018-05-29T14:51:41.666Z,32.00
2018-05-29T14:54:07.758Z,32.00
2018-05-29T14:56:33.862Z,32.00
2018-05-29T14:59:00.690Z,32.10
2018-05-29T15:01:26.774Z,32.10
2018-05-29T15:03:53.305Z,32.00
2018-05-29T15:06:19.381Z,31.80
2018-05-29T15:08:45.467Z,31.80
2018-05-29T15:11:11.574Z,31.80
2018-05-29T15:13:37.660Z,32.00
2018-05-29T15:16:03.853Z,32.00
2018-05-29T15:18:29.941Z,31.80
2018-05-29T15:20:56.046Z,31.80
2018-05-29T15:23:22.872Z,31.60
2018-05-29T15:25:48.965Z,31.60
2018-05-29T15:28:15.050Z,31.40
2018-05-29T15:30:42.334Z,31.30
2018-05-29T15:33:08.405Z,31.20
2018-05-29T15:35:34.498Z,31.40
2018-05-29T15:38:00.634Z,31.40
2018-05-29T15:40:26.734Z,31.30
2018-05-29T15:42:52.817Z,31.20
2018-05-29T15:45:18.929Z,31.30
2018-05-29T15:47:45.010Z,31.40
2018-05-29T15:50:11.125Z,31.30
2018-05-29T15:52:37.232Z,31.30
2018-05-29T15:55:04.070Z,31.30
2018-05-29T15:57:30.914Z,31.20
2018-05-29T15:59:57.785Z,31.20
2018-05-29T16:02:24.605Z,31.30
2018-05-29T16:04:51.434Z,31.30
2018-05-29T16:07:17.513Z,31.30
2018-05-29T16:09:44.813Z,31.30
2018-05-29T16:12:11.184Z,31.40
2018-05-29T16:14:37.455Z,31.40
2018-05-29T16:17:03.639Z,31.50
2018-05-29T16:19:29.765Z,31.40
2018-05-29T16:21:56.414Z,31.30
2018-05-29T16:24:22.502Z,31.20
2018-05-29T16:26:49.391Z,30.90
2018-05-29T16:29:15.492Z,30.90
2018-05-29T16:31:41.590Z,30.80
2018-05-29T16:34:07.690Z,30.80
2018-05-29T16:36:33.773Z,30.80
2018-05-29T16:38:59.863Z,30.80
2018-05-29T16:41:25.974Z,30.70
2018-05-29T16:43:52.092Z,30.70
2018-05-29T16:46:18.174Z,30.70
2018-05-29T16:48:44.621Z,30.60
2018-05-29T16:51:10.710Z,30.60
2018-05-29T16:53:37.541Z,30.50
2018-05-29T16:56:03.700Z,30.50
2018-05-29T16:58:29.785Z,30.50
2018-05-29T17:00:56.314Z,30.40
2018-05-29T17:03:22.465Z,30.40
2018-05-29T17:05:48.561Z,30.40
2018-05-29T17:08:14.794Z,30.30
2018-05-29T17:10:40.900Z,30.30
2018-05-29T17:13:07.247Z,30.30
2018-05-29T17:15:33.326Z,30.30
2018-05-29T17:18:00.170Z,30.20
2018-05-29T17:20:26.266Z,30.10
2018-05-29T17:22:52.349Z,30.10
2018-05-29T17:25:18.433Z,30.10
2018-05-29T17:27:45.269Z,30.00
2018-05-29T17:30:12.117Z,30.10
2018-05-29T17:32:38.945Z,30.00
2018-05-29T17:35:05.056Z,30.00
2018-05-29T17:37:31.167Z,29.90
2018-05-29T17:39:57.285Z,29.80
2018-05-29T17:42:23.651Z,29.60
2018-05-29T17:44:49.794Z,29.20
2018-05-29T17:47:16.639Z,28.30
2018-05-29T17:49:43.485Z,27.80
2018-05-29T17:52:10.322Z,27.30
2018-05-29T17:54:37.173Z,27.10
2018-05-29T17:57:04.010Z,26.70
2018-05-29T17:59:30.832Z,26.50
2018-05-29T18:01:56.930Z,26.50
2018-05-29T18:04:23.152Z,26.50
2018-05-29T18:06:49.235Z,26.70
2018-05-29T18:09:16.061Z,27.00
2018-05-29T18:11:42.194Z,26.90
2018-05-29T18:14:08.337Z,26.70
2018-05-29T18:16:34.391Z,26.50
2018-05-29T18:19:00.490Z,26.50
2018-05-29T18:21:27.373Z,26.10
2018-05-29T18:23:53.482Z,26.00
2018-05-29T18:26:19.570Z,25.80
2018-05-29T18:28:46.422Z,25.60
2018-05-29T18:31:13.318Z,25.30
2018-05-29T18:33:39.406Z,25.30
2018-05-29T18:36:05.511Z,25.20
2018-05-29T18:38:32.430Z,25.40
2018-05-29T18:40:58.486Z,25.40
2018-05-29T18:43:25.363Z,25.20
2018-05-29T18:45:51.487Z,25.20
2018-05-29T18:48:17.663Z,25.20
2018-05-29T18:50:44.054Z,24.80
2018-05-29T18:53:10.185Z,24.80
2018-05-29T18:55:36.340Z,24.80
2018-05-29T18:58:02.479Z,24.40
2018-05-29T19:00:28.589Z,24.40
2018-05-29T19:02:54.693Z,24.00
2018-05-29T19:05:20.794Z,23.80
2018-05-29T19:07:46.906Z,23.30
2018-05-29T19:10:13.743Z,22.80
2018-05-29T19:12:40.597Z,22.70
2018-05-29T19:15:06.746Z,22.70
2018-05-29T19:17:32.839Z,22.70
2018-05-29T19:19:59.705Z,22.10
2018-05-29T19:22:25.814Z,22.10
2018-05-29T19:24:52.666Z,22.00
2018-05-29T19:27:19.514Z,22.10
2018-05-29T19:29:45.614Z,22.10
2018-05-29T19:32:11.871Z,21.90
2018-05-29T19:34:37.950Z,22.00
2018-05-29T19:37:04.065Z,22.00
2018-05-29T19:39:30.249Z,22.10
2018-05-29T19:41:56.710Z,22.20
2018-05-29T19:44:22.810Z,22.20
2018-05-29T19:46:48.941Z,22.20
2018-05-29T19:49:15.069Z,22.20
2018-05-29T19:51:41.189Z,21.90
2018-05-29T19:54:07.746Z,21.90
2018-05-29T19:56:33.838Z,21.90
2018-05-29T19:59:00.723Z,21.70
2018-05-29T20:01:26.834Z,21.70
2018-05-29T20:03:52.942Z,21.70
2018-05-29T20:06:19.198Z,21.70
2018-05-29T20:08:45.312Z,21.60
2018-05-29T20:11:11.430Z,21.60
2018-05-29T20:13:37.528Z,21.50
2018-05-29T20:16:07.233Z,21.20
2018-05-29T20:18:33.337Z,21.10
2018-05-29T20:20:59.485Z,21.10
2018-05-29T20:23:25.590Z,21.20
2018-05-29T20:25:51.799Z,21.20
2018-05-29T20:28:18.053Z,21.20
2018-05-29T20:30:44.199Z,21.20
2018-05-29T20:33:10.253Z,21.10
2018-05-29T20:35:36.370Z,21.10
2018-05-29T20:38:03.546Z,21.20
2018-05-29T20:40:29.642Z,21.20
2018-05-29T20:42:56.484Z,21.10
2018-05-29T20:45:23.326Z,21.10
2018-05-29T20:47:50.166Z,21.10
2018-05-29T20:50:17.871Z,21.10
2018-05-29T20:52:44.000Z,21.10
2018-05-29T20:55:10.147Z,21.10
2018-05-29T20:57:36.269Z,20.70
2018-05-29T21:00:02.426Z,20.60
2018-05-29T21:02:28.615Z,20.70
2018-05-29T21:04:54.829Z,20.70
2018-05-29T21:07:20.949Z,20.70
2018-05-29T21:09:47.063Z,20.70
2018-05-29T21:12:13.153Z,20.60
2018-05-29T21:14:39.324Z,20.60
2018-05-29T21:17:05.479Z,20.70
2018-05-29T21:19:31.617Z,20.80
2018-05-29T21:21:57.737Z,20.80
2018-05-29T21:24:24.299Z,20.80
2018-05-29T21:26:50.433Z,20.90
2018-05-29T21:29:17.333Z,21.00
2018-05-29T21:31:43.481Z,21.00
2018-05-29T21:34:09.684Z,21.00
2018-05-29T21:36:35.800Z,20.90
2018-05-29T21:39:01.975Z,20.90
2018-05-29T21:41:28.933Z,21.00
2018-05-29T21:43:55.133Z,21.00
2018-05-29T21:46:21.384Z,20.80
2018-05-29T21:48:47.967Z,20.80
2018-05-29T21:51:14.086Z,20.80
2018-05-29T21:53:40.246Z,20.80
2018-05-29T21:56:08.451Z,20.70
2018-05-29T21:58:34.693Z,20.70
2018-05-29T22:01:01.558Z,20.70
2018-05-29T22:03:27.661Z,20.70
2018-05-29T22:05:53.757Z,20.80
2018-05-29T22:08:19.871Z,20.80
2018-05-29T22:10:46.293Z,20.80
2018-05-29T22:13:12.394Z,20.80
2018-05-29T22:15:38.602Z,20.80
2018-05-29T22:18:05.446Z,20.60
2018-05-29T22:20:32.402Z,20.60
2018-05-29T22:22:59.241Z,20.70
2018-05-29T22:25:26.075Z,20.60
2018-05-29T22:27:52.942Z,20.60
2018-05-29T22:30:19.407Z,20.60
2018-05-29T22:32:45.526Z,20.60
2018-05-29T22:35:11.617Z,20.70
2018-05-29T22:37:38.453Z,20.50
2018-05-29T22:40:05.289Z,20.50
2018-05-29T22:42:31.394Z,20.50
2018-05-29T22:44:57.490Z,20.60
2018-05-29T22:47:24.030Z,20.40
2018-05-29T22:49:50.187Z,20.50
2018-05-29T22:52:16.277Z,20.50
2018-05-29T22:54:42.378Z,20.40
2018-05-29T22:57:09.201Z,20.50
2018-05-29T22:59:36.494Z,20.50
2018-05-29T23:02:02.594Z,20.50
2018-05-29T23:04:29.430Z,20.30
2018-05-29T23:06:56.269Z,20.40
2018-05-29T23:09:23.098Z,20.30
2018-05-29T23:11:49.235Z,20.30
2018-05-29T23:14:15.322Z,20.30
2018-05-29T23:16:41.430Z,20.30
2018-05-29T23:19:07.513Z,20.30
2018-05-29T23:21:34.642Z,20.20
2018-05-29T23:24:00.831Z,20.20
2018-05-29T23:26:26.920Z,20.30
2018-05-29T23:28:53.757Z,20.40
2018-05-29T23:31:19.905Z,20.40
2018-05-29T23:33:46.735Z,20.40
2018-05-29T23:36:13.575Z,20.20
2018-05-29T23:38:40.865Z,20.20
2018-05-29T23:41:06.959Z,20.20
2018-05-29T23:43:33.790Z,20.40
2018-05-29T23:45:59.897Z,20.40
2018-05-29T23:48:25.976Z,20.40
2018-05-29T23:50:52.067Z,20.50
2018-05-29T23:53:18.914Z,20.30
2018-05-29T23:55:46.213Z,20.30
2018-05-29T23:58:12.303Z,20.30
